Time;durP1;ratioP1;P1;durP2;ratioP2;P2;SDS_P1;SDS_P2;PMS_P1;PMS_P2;Temp;Humidity;BMP_temperature;BMP_pressure;BME280_temperature;BME280_humidity;BME280_pressure;Samples;Min_cycle;Max_cycle;Signal;HPM_P1;HPM_P2
2022/01/18 00:01:50;;;;;;;34.13;5.15;;;;;;;7.75;100.00;103327.75;5079113;28;20080;-72
2022/01/18 00:04:18;;;;;;;28.98;5.63;;;;;;;7.77;100.00;103328.22;5066007;28;20088;-76
2022/01/18 00:06:49;;;;;;;38.22;5.15;;;;;;;7.81;100.00;103320.16;5064340;28;20048;-73
2022/01/18 00:09:20;;;;;;;31.85;4.95;;;;;;;7.79;100.00;103325.16;5064394;28;20052;-72
2022/01/18 00:11:55;;;;;;;37.45;5.18;;;;;;;7.78;100.00;103326.28;5065434;28;20064;-72
2022/01/18 00:14:27;;;;;;;36.92;5.30;;;;;;;7.69;100.00;103330.94;5065341;28;20068;-72
2022/01/18 00:17:05;;;;;;;26.00;4.57;;;;;;;7.64;100.00;103339.34;5062701;28;20501;-72
2022/01/18 00:19:34;;;;;;;27.90;5.20;;;;;;;7.53;100.00;103327.75;5064877;28;20094;-71
2022/01/18 00:24:27;;;;;;;25.20;5.68;;;;;;;7.50;100.00;103346.88;5064282;28;20044;-72
2022/01/18 00:26:53;;;;;;;19.25;4.38;;;;;;;7.46;100.00;103343.13;5066937;28;20041;-71
2022/01/18 00:29:23;;;;;;;34.13;6.80;;;;;;;7.45;100.00;103349.72;5067530;28;20049;-73
2022/01/18 00:32:08;;;;;;;34.90;5.43;;;;;;;7.43;100.00;103349.25;5065653;28;20048;-72
2022/01/18 00:34:36;;;;;;;;;;;;;;;7.45;100.00;103367.09;5064619;28;20127;-73
2022/01/18 00:39:36;;;;;;;35.22;5.55;;;;;;;7.48;100.00;103366.47;5064766;28;20045;-73
2022/01/18 00:42:05;;;;;;;27.92;5.70;;;;;;;7.49;100.00;103370.00;5062286;28;20183;-72
2022/01/18 00:44:32;;;;;;;25.88;4.13;;;;;;;7.45;100.00;103372.59;5080710;28;20048;-72
2022/01/18 00:46:59;;;;;;;26.00;4.43;;;;;;;7.47;100.00;103367.59;5067755;28;20060;-72
2022/01/18 00:49:25;;;;;;;32.58;5.22;;;;;;;7.50;100.00;103366.16;5067930;28;20048;-72
2022/01/18 00:51:55;;;;;;;28.30;4.43;;;;;;;7.53;100.00;103373.78;5070385;28;20052;-74
2022/01/18 00:54:28;;;;;;;25.95;4.93;;;;;;;7.54;100.00;103379.00;5070380;28;20050;-73
2022/01/18 00:56:55;;;;;;;25.88;5.72;;;;;;;7.53;100.00;103371.03;5070082;28;20139;-71
2022/01/18 00:59:22;;;;;;;21.02;4.25;;;;;;;7.58;100.00;103379.16;5069063;28;20079;-73
2022/01/18 01:01:49;;;;;;;34.80;5.05;;;;;;;7.59;100.00;103387.13;5069665;28;20087;-73
2022/01/18 01:04:18;;;;;;;27.10;4.68;;;;;;;7.62;100.00;103393.94;5068995;28;20123;-73
2022/01/18 01:06:44;;;;;;;28.67;5.00;;;;;;;7.61;100.00;103384.88;5069395;28;20052;-71
2022/01/18 01:09:12;;;;;;;28.15;4.85;;;;;;;7.65;100.00;103393.31;5069811;28;20045;-72
2022/01/18 01:11:39;;;;;;;31.63;4.03;;;;;;;7.67;100.00;103383.59;5069236;28;20055;-73
2022/01/18 01:14:12;;;;;;;26.65;4.32;;;;;;;7.69;100.00;103378.59;5076670;28;20044;-73
2022/01/18 01:16:59;;;;;;;28.60;4.05;;;;;;;7.70;100.00;103371.97;5082973;28;20076;-72
2022/01/18 01:33:38;;;;;;;29.25;4.50;;;;;;;7.69;100.00;103392.38;5067591;28;20348;-73
2022/01/18 01:46:29;;;;;;;26.48;4.30;;;;;;;7.70;100.00;103388.50;5069533;28;20056;-74
2022/01/18 01:48:57;;;;;;;28.80;4.57;;;;;;;7.68;100.00;103395.47;5069454;28;20444;-75
2022/01/18 01:51:30;;;;;;;31.05;4.05;;;;;;;7.62;100.00;103394.78;5068180;28;20087;-73
2022/01/18 01:54:04;;;;;;;36.70;4.97;;;;;;;7.65;100.00;103398.84;5068608;28;20140;-74
2022/01/18 01:56:31;;;;;;;32.13;4.65;;;;;;;7.65;100.00;103402.41;5070718;28;20131;-73
2022/01/18 01:58:58;;;;;;;24.60;4.63;;;;;;;7.65;100.00;103398.84;5068078;28;20080;-76
2022/01/18 02:01:25;;;;;;;32.30;4.60;;;;;;;7.65;100.00;103398.84;5067315;28;20126;-74
2022/01/18 02:03:53;;;;;;;28.33;4.60;;;;;;;7.65;100.00;103393.31;5071648;28;20056;-73
2022/01/18 02:06:21;;;;;;;35.45;5.15;;;;;;;7.64;100.00;103389.78;5070684;28;20051;-73
2022/01/18 02:08:48;;;;;;;29.48;5.82;;;;;;;7.66;100.00;103392.19;5068437;28;20143;-72
2022/01/18 02:11:15;;;;;;;33.58;5.07;;;;;;;7.66;100.00;103389.44;5067469;28;20080;-73
2022/01/18 02:13:42;;;;;;;32.75;4.38;;;;;;;7.67;100.00;103389.13;5074225;28;20135;-74
2022/01/18 02:16:19;;;;;;;28.30;4.60;;;;;;;7.70;100.00;103390.47;5078777;28;20599;-74
2022/01/18 02:21:46;;;;;;;32.70;5.57;;;;;;;7.68;100.00;103384.44;5069419;28;20139;-74
2022/01/18 02:24:15;;;;;;;38.38;5.20;;;;;;;7.68;100.00;103379.75;5065862;28;20137;-74
2022/01/18 02:26:42;;;;;;;28.65;4.22;;;;;;;7.67;100.00;103378.09;5059635;28;20080;-73
2022/01/18 02:29:10;;;;;;;27.90;4.70;;;;;;;7.66;100.00;103376.47;5066951;28;20135;-73
2022/01/18 02:31:38;;;;;;;30.00;4.97;;;;;;;7.65;100.00;103374.84;5069888;28;20079;-75
2022/01/18 02:34:09;;;;;;;25.90;4.18;;;;;;;7.63;100.00;103365.28;5068480;28;20628;-73
2022/01/18 02:36:35;;;;;;;29.38;5.38;;;;;;;7.66;100.00;103370.13;5057565;28;20059;-74
2022/01/18 02:39:04;;;;;;;31.02;4.68;;;;;;;7.63;100.00;103382.59;5064220;28;20131;-74
2022/01/18 02:41:32;;;;;;;24.13;4.60;;;;;;;7.66;100.00;103378.41;5068184;28;20131;-73
2022/01/18 02:44:05;;;;;;;37.63;4.93;;;;;;;7.64;100.00;103372.41;5067461;28;20598;-74
2022/01/18 02:46:33;;;;;;;32.17;5.00;;;;;;;7.60;100.00;103369.44;5066879;28;20102;-74
2022/01/18 02:49:02;;;;;;;30.80;4.72;;;;;;;7.65;100.00;103383.13;5076513;28;20052;-74
2022/01/18 02:51:28;;;;;;;27.98;4.13;;;;;;;7.65;100.00;103376.78;5065864;28;20048;-71
2022/01/18 02:54:02;;;;;;;25.63;4.35;;;;;;;7.65;100.00;103379.53;5067400;28;20059;-73
2022/01/18 02:56:31;;;;;;;22.40;3.88;;;;;;;7.63;100.00;103382.59;5072417;28;20117;-72
2022/01/18 02:59:06;;;;;;;34.45;5.10;;;;;;;7.65;100.00;103374.84;5064244;28;20448;-74
2022/01/18 03:04:18;;;;;;;25.08;4.45;;;;;;;7.66;100.00;103373.72;5076383;28;20044;-73
2022/01/18 03:06:45;;;;;;;26.30;4.22;;;;;;;7.65;100.00;103374.03;5069951;28;20159;-72
2022/01/18 03:09:12;;;;;;;27.55;4.30;;;;;;;7.64;100.00;103383.44;5068783;28;20063;-73
2022/01/18 03:11:39;;;;;;;30.00;4.63;;;;;;;7.64;100.00;103378.75;5067457;28;20053;-73
2022/01/18 03:14:06;;;;;;;28.10;4.63;;;;;;;7.63;100.00;103387.31;5066337;28;20049;-73
2022/01/18 03:16:33;;;;;;;36.28;4.30;;;;;;;7.60;100.00;103385.97;5068430;28;20060;-73
2022/01/18 03:19:00;;;;;;;26.00;4.35;;;;;;;7.62;100.00;103391.19;5066660;28;20048;-73
2022/01/18 03:21:27;;;;;;;31.20;4.60;;;;;;;7.62;100.00;103396.69;5066599;28;20048;-75
2022/01/18 03:24:09;;;;;;;33.17;4.80;;;;;;;7.60;100.00;103390.72;5067968;28;20045;-73
2022/01/18 03:28:04;;;;;;;30.77;5.72;;;;;;;7.62;100.00;103392.00;5066424;28;20064;-72
2022/01/18 03:29:25;;;;;;;18.92;3.58;;;;;;;7.63;100.00;103390.09;5063704;28;20135;-73
2022/01/18 03:31:52;;;;;;;30.05;3.80;;;;;;;7.63;100.00;103385.38;5066774;28;20060;-73
2022/01/18 03:34:19;;;;;;;25.67;4.15;;;;;;;7.65;100.00;103396.91;5069187;28;20076;-73
2022/01/18 03:36:46;;;;;;;26.88;4.20;;;;;;;7.64;100.00;103392.53;5075759;28;20159;-74
2022/01/18 03:39:14;;;;;;;30.30;4.43;;;;;;;7.65;100.00;103399.66;5067771;28;20049;-73
2022/01/18 03:41:41;;;;;;;31.17;4.22;;;;;;;7.66;100.00;103400.44;5063627;28;20049;-73
2022/01/18 03:44:07;;;;;;;25.23;4.05;;;;;;;7.65;100.00;103390.56;5066296;28;20600;-75
2022/01/18 03:46:36;;;;;;;35.33;4.35;;;;;;;7.66;100.00;103393.00;5067923;28;20059;-72
2022/01/18 03:49:04;;;;;;;30.63;4.25;;;;;;;7.65;100.00;103387.81;5067186;28;20483;-74
2022/01/18 03:51:32;;;;;;;27.60;3.83;;;;;;;7.64;100.00;103399.97;5067127;28;20164;-73
2022/01/18 03:53:59;;;;;;;22.40;5.65;;;;;;;7.63;100.00;103393.63;5079391;28;20052;-73
2022/01/18 03:56:26;;;;;;;23.38;3.45;;;;;;;7.64;100.00;103387.00;5066147;28;20139;-72
2022/01/18 03:58:52;;;;;;;24.45;3.53;;;;;;;7.66;100.00;103397.69;5068323;28;20083;-74
2022/01/18 04:01:19;;;;;;;17.77;3.25;;;;;;;7.67;100.00;103393.84;5065886;28;20420;-75
2022/01/18 04:03:51;;;;;;;19.95;3.00;;;;;;;7.65;100.00;103399.66;5070018;28;20055;-72
2022/01/18 04:06:18;;;;;;;23.50;3.88;;;;;;;7.65;100.00;103396.06;5073833;28;20048;-73
2022/01/18 04:08:44;;;;;;;25.73;3.42;;;;;;;7.66;100.00;103404.03;5063793;28;20078;-73
2022/01/18 04:11:11;;;;;;;12.48;2.40;;;;;;;7.64;100.00;103398.03;5067629;28;20131;-73
2022/01/18 04:13:37;;;;;;;32.10;4.15;;;;;;;7.60;100.00;103404.47;5067776;28;20455;-76
2022/01/18 04:16:04;;;;;;;24.95;3.58;;;;;;;7.63;100.00;103404.66;5066352;28;20075;-73
2022/01/18 04:18:49;;;;;;;22.92;3.28;;;;;;;7.65;100.00;103409.84;5067687;28;20048;-75
2022/01/18 04:29:12;;;;;;;25.42;4.07;;;;;;;7.61;100.00;103408.84;5071134;28;20448;-72
2022/01/18 04:31:39;;;;;;;21.65;3.80;;;;;;;7.59;100.00;103405.59;5070091;28;20167;-71
2022/01/18 04:34:06;;;;;;;18.98;3.38;;;;;;;7.59;100.00;103402.84;5071648;28;20052;-73
2022/01/18 04:36:32;;;;;;;17.35;2.75;;;;;;;7.59;100.00;103414.69;5074840;28;20136;-74
2022/01/18 04:38:59;;;;;;;13.82;2.65;;;;;;;7.57;100.00;103405.09;5067163;28;20063;-71
2022/01/18 04:41:29;;;;;;;17.20;2.30;;;;;;;7.57;100.00;103405.09;5064198;28;20382;-74
2022/01/18 04:49:14;;;;;;;27.58;3.72;;;;;;;7.54;100.00;103401.03;5070656;28;20801;-73
2022/01/18 04:51:41;;;;;;;24.95;4.15;;;;;;;7.55;100.00;103401.84;5070831;28;20515;-73
2022/01/18 04:54:10;;;;;;;21.17;3.47;;;;;;;7.55;100.00;103407.34;5069400;28;20072;-75
2022/01/18 04:59:06;;;;;;;20.48;3.92;;;;;;;7.57;100.00;103419.69;5069621;28;20135;-73
2022/01/18 05:01:37;;;;;;;20.85;3.75;;;;;;;7.56;100.00;103420.81;5070658;28;20059;-73
2022/01/18 05:04:05;;;;;;;28.92;4.30;;;;;;;7.57;100.00;103424.38;5076534;28;20055;-75
2022/01/18 05:06:31;;;;;;;17.65;4.38;;;;;;;7.58;100.00;103431.53;5074874;28;20170;-73
2022/01/18 05:09:01;;;;;;;24.05;4.63;;;;;;;7.56;100.00;103436.56;5070933;28;20048;-73
2022/01/18 05:11:31;;;;;;;18.52;3.83;;;;;;;7.56;100.00;103433.78;5070787;28;20143;-73
2022/01/18 05:16:44;;;;;;;27.35;3.75;;;;;;;7.57;100.00;103432.66;5067062;28;20047;-75
2022/01/18 05:19:37;;;;;;;;;;;;;;;;;;;;;
2022/01/18 05:24:28;;;;;;;23.55;4.05;;;;;;;7.47;100.00;103428.22;5069921;28;20052;-73
2022/01/18 05:26:54;;;;;;;24.13;4.55;;;;;;;7.49;100.00;103430.63;5070358;28;20052;-72
2022/01/18 05:29:22;;;;;;;22.90;4.00;;;;;;;7.47;100.00;103419.94;5068416;28;20049;-73
2022/01/18 05:31:49;;;;;;;22.23;5.18;;;;;;;7.44;100.00;103423.31;5069047;28;20052;-73
2022/01/18 05:34:16;;;;;;;22.38;5.00;;;;;;;7.45;100.00;103424.94;5069820;28;20080;-73
2022/01/18 05:36:44;;;;;;;27.27;5.80;;;;;;;7.40;100.00;103415.97;5073346;28;20050;-72
2022/01/18 05:39:12;;;;;;;23.08;4.03;;;;;;;7.44;100.00;103419.75;5069798;28;20060;-74
2022/01/18 05:41:41;;;;;;;23.23;4.78;;;;;;;7.41;100.00;103412.09;5069125;28;20087;-73
2022/01/18 05:44:08;;;;;;;23.13;4.88;;;;;;;7.41;100.00;103421.19;5068228;28;20052;-74
2022/01/18 05:46:35;;;;;;;23.48;4.90;;;;;;;7.40;100.00;103418.75;5067179;28;20052;-73
2022/01/18 05:49:03;;;;;;;36.60;6.05;;;;;;;7.37;100.00;103425.69;5068991;28;20408;-74
2022/01/18 05:51:32;;;;;;;28.38;5.93;;;;;;;7.34;100.00;103423.56;5069903;28;20523;-71
2022/01/18 05:54:00;;;;;;;30.90;5.90;;;;;;;7.29;100.00;103420.09;5068119;28;20079;-74
2022/01/18 05:56:29;;;;;;;28.48;5.80;;;;;;;7.31;100.00;103426.94;5067914;28;20067;-72
2022/01/18 05:58:59;;;;;;;25.90;6.30;;;;;;;7.30;100.00;103430.00;5070165;28;20087;-74
2022/01/18 06:01:31;;;;;;;25.50;5.97;;;;;;;7.29;100.00;103423.66;5068060;28;20459;-74
2022/01/18 06:09:14;;;;;;;36.80;6.15;;;;;;;7.28;100.00;103433.06;5069763;28;20056;-73
2022/01/18 06:11:41;;;;;;;26.85;6.05;;;;;;;7.24;100.00;103428.47;5061949;28;20051;-76
2022/01/18 06:14:08;;;;;;;31.58;6.28;;;;;;;7.30;100.00;103430.00;5069254;28;20580;-73
2022/01/18 06:16:34;;;;;;;41.10;6.90;;;;;;;7.30;100.00;103432.75;5064201;28;20090;-73
2022/01/18 06:19:01;;;;;;;27.05;6.65;;;;;;;7.34;100.00;103436.50;5068870;28;20437;-76
2022/01/18 06:21:28;;;;;;;29.55;5.90;;;;;;;7.33;100.00;103435.69;5069064;28;20105;-76
2022/01/18 06:23:54;;;;;;;23.77;6.40;;;;;;;7.33;100.00;103440.38;5068838;28;20080;-73
2022/01/18 06:26:21;;;;;;;33.05;7.90;;;;;;;7.36;100.00;103432.31;5065261;28;20049;-73
2022/01/18 06:28:47;;;;;;;32.83;8.00;;;;;;;7.37;100.00;103438.63;5061112;28;20132;-75
2022/01/18 06:31:17;;;;;;;32.10;6.82;;;;;;;7.37;100.00;103441.38;5066771;28;20468;-73
2022/01/18 06:33:44;;;;;;;36.67;8.68;;;;;;;7.38;100.00;103441.09;5084398;28;20084;-72
2022/01/18 06:36:11;;;;;;;28.95;6.32;;;;;;;7.39;100.00;103439.16;5073886;28;20044;-73
2022/01/18 06:38:38;;;;;;;28.92;7.90;;;;;;;7.38;100.00;103449.34;5064908;28;20101;-73
2022/01/18 06:41:05;;;;;;;33.13;8.65;;;;;;;7.38;100.00;103449.34;5068011;28;20062;-72
2022/01/18 06:43:32;;;;;;;31.98;8.20;;;;;;;7.37;100.00;103450.47;5068668;28;20055;-74
2022/01/18 06:45:59;;;;;;;35.22;8.57;;;;;;;7.34;100.00;103447.53;5065128;28;20044;-75
2022/01/18 06:48:26;;;;;;;30.23;7.65;;;;;;;7.34;100.00;103451.09;5065904;28;20448;-73
2022/01/18 06:50:53;;;;;;;27.75;8.32;;;;;;;7.31;100.00;103445.38;5068741;28;20052;-74
2022/01/18 06:53:20;;;;;;;32.03;9.00;;;;;;;7.33;100.00;103443.16;5066082;28;20153;-72
2022/01/18 06:55:51;;;;;;;41.85;10.82;;;;;;;7.31;100.00;103450.88;5068467;28;20055;-73
2022/01/18 06:58:18;;;;;;;37.80;8.48;;;;;;;7.26;100.00;103453.78;5068066;28;20424;-74
2022/01/18 07:00:45;;;;;;;38.22;10.40;;;;;;;7.25;100.00;103455.69;5068024;28;20056;-74
2022/01/18 07:03:11;;;;;;;37.20;10.18;;;;;;;7.25;100.00;103449.38;5066067;28;20050;-74
2022/01/18 07:05:39;;;;;;;40.25;10.95;;;;;;;7.19;100.00;103448.66;5070732;28;20048;-74
2022/01/18 07:08:06;;;;;;;44.00;12.13;;;;;;;7.19;100.00;103448.66;5067602;28;20083;-74
2022/01/18 07:10:32;;;;;;;34.03;9.32;;;;;;;7.20;100.00;103455.81;5066681;28;20048;-74
2022/01/18 07:13:00;;;;;;;46.22;10.90;;;;;;;7.19;100.00;103456.13;5069188;28;20155;-73
2022/01/18 07:15:27;;;;;;;41.58;10.75;;;;;;;7.19;100.00;103464.41;5064245;28;20076;-75
2022/01/18 07:17:54;;;;;;;47.80;12.45;;;;;;;7.19;100.00;103465.19;5065748;28;20054;-73
2022/01/18 07:20:21;;;;;;;48.65;16.35;;;;;;;7.19;100.00;103459.69;5066881;28;20048;-74
2022/01/18 07:22:48;;;;;;;44.08;11.90;;;;;;;7.16;100.00;103463.03;5070571;28;20062;-74
2022/01/18 07:25:17;;;;;;;46.95;12.32;;;;;;;7.19;100.00;103464.41;5067472;28;20095;-74
2022/01/18 07:27:44;;;;;;;43.97;12.30;;;;;;;7.21;100.00;103473.16;5068110;28;20055;-73
2022/01/18 07:30:11;;;;;;;52.20;11.82;;;;;;;7.21;100.00;103467.63;5057770;28;20164;-76
2022/01/18 07:32:37;;;;;;;50.95;12.18;;;;;;;7.22;100.00;103470.09;5064959;28;20053;-74
2022/01/18 07:35:04;;;;;;;37.92;10.27;;;;;;;7.21;100.00;103479.47;5067814;28;20048;-74
2022/01/18 07:37:31;;;;;;;46.22;12.05;;;;;;;7.22;100.00;103474.78;5069123;28;20147;-74
2022/01/18 07:39:57;;;;;;;49.00;11.88;;;;;;;7.25;100.00;103485.16;5072030;28;20056;-73
2022/01/18 07:42:24;;;;;;;41.03;10.95;;;;;;;7.26;100.00;103481.31;5066665;28;20052;-72
2022/01/18 07:44:51;;;;;;;36.20;10.55;;;;;;;7.29;100.00;103491.72;5064199;28;20052;-75
2022/01/18 07:47:19;;;;;;;41.80;11.50;;;;;;;7.30;100.00;103491.38;5068145;28;20091;-74
2022/01/18 07:49:46;;;;;;;41.53;11.07;;;;;;;7.27;100.00;103482.94;5066519;28;20152;-73
2022/01/18 07:52:14;;;;;;;43.42;10.93;;;;;;;7.32;100.00;103485.56;5066858;28;20048;-73
2022/01/18 07:54:41;;;;;;;45.33;11.40;;;;;;;7.37;100.00;103493.72;5067669;28;20084;-74
2022/01/18 07:57:12;;;;;;;46.70;12.80;;;;;;;7.34;100.00;103489.66;5060539;28;20045;-77
2022/01/18 07:59:39;;;;;;;36.05;11.95;;;;;;;7.39;100.00;103499.75;5058592;28;20519;-74
2022/01/18 08:02:07;;;;;;;45.70;12.30;;;;;;;7.38;100.00;103492.59;5067445;28;20074;-71
2022/01/18 08:04:34;;;;;;;42.33;11.57;;;;;;;7.38;100.00;103495.34;5076675;28;20496;-73
2022/01/18 08:07:00;;;;;;;34.60;11.82;;;;;;;7.41;100.00;103492.81;5069546;28;20074;-74
2022/01/18 08:09:27;;;;;;;41.72;12.35;;;;;;;7.45;100.00;103495.75;5067951;28;20135;-74
2022/01/18 08:11:53;;;;;;;44.30;12.23;;;;;;;7.43;100.00;103492.50;5066607;28;20049;-75
2022/01/18 08:14:20;;;;;;;47.20;14.10;;;;;;;7.48;100.00;103495.97;5059610;28;20467;-73
2022/01/18 08:17:00;;;;;;;42.33;11.65;;;;;;;7.50;100.00;103499.19;5053798;28;20041;-73
2022/01/18 08:19:35;;;;;;;39.22;12.27;;;;;;;7.53;100.00;103508.81;5067662;28;20139;-74
2022/01/18 08:22:07;;;;;;;45.63;13.23;;;;;;;7.54;100.00;103511.25;5066859;28;20044;-74
2022/01/18 08:24:34;;;;;;;46.05;14.18;;;;;;;7.55;100.00;103498.28;5067577;28;20074;-73
2022/01/18 08:27:00;;;;;;;47.35;13.23;;;;;;;7.54;100.00;103496.66;5060731;28;20076;-74
2022/01/18 08:29:27;;;;;;;35.88;12.10;;;;;;;7.58;100.00;103494.91;5066873;28;20049;-73
2022/01/18 08:32:16;;;;;;;44.15;12.93;;;;;;;7.59;100.00;103502.03;5066621;28;20057;-75
2022/01/18 08:34:43;;;;;;;37.28;11.30;;;;;;;7.63;100.00;103498.34;5070516;28;20086;-70
2022/01/18 08:37:10;;;;;;;43.33;13.75;;;;;;;7.65;100.00;103498.03;5074072;28;20043;-73
2022/01/18 08:39:37;;;;;;;44.50;13.15;;;;;;;7.64;100.00;103500.00;5068169;28;20420;-75
2022/01/18 08:42:03;;;;;;;37.50;11.85;;;;;;;7.68;100.00;103501.00;5066572;28;20131;-73
2022/01/18 08:44:30;;;;;;;44.28;13.27;;;;;;;7.67;100.00;103495.81;5065715;28;20153;-72
2022/01/18 08:46:57;;;;;;;48.55;13.15;;;;;;;7.69;100.00;103497.13;5065174;28;20040;-73
2022/01/18 08:49:23;;;;;;;47.08;12.45;;;;;;;7.69;100.00;103505.38;5052902;28;20052;-73
2022/01/18 08:51:50;;;;;;;46.97;12.88;;;;;;;7.70;100.00;103503.47;5057499;28;20099;-74
2022/01/18 08:54:16;;;;;;;46.25;14.13;;;;;;;7.75;100.00;103511.59;5072659;28;20055;-72
2022/01/18 08:56:43;;;;;;;40.33;12.45;;;;;;;7.76;100.00;103518.72;5063419;28;20501;-74
2022/01/18 08:59:20;;;;;;;41.38;12.88;;;;;;;7.80;100.00;103512.28;5065074;28;20152;-72
2022/01/18 09:01:46;;;;;;;40.92;13.43;;;;;;;7.82;100.00;103510.03;5066469;28;20052;-72
2022/01/18 09:04:13;;;;;;;43.95;13.55;;;;;;;7.84;100.00;103512.50;5072828;28;20128;-75
2022/01/18 09:06:40;;;;;;;43.45;13.30;;;;;;;7.87;100.00;103512.66;5070367;28;20273;-73
2022/01/18 09:09:09;;;;;;;39.60;13.40;;;;;;;7.93;100.00;103514.19;5070274;28;20142;-72
2022/01/18 09:11:36;;;;;;;50.00;14.00;;;;;;;7.95;100.00;103522.16;5069299;28;20162;-74
2022/01/18 09:14:03;;;;;;;47.08;12.80;;;;;;;7.97;100.00;103519.91;5069549;28;20079;-73
2022/01/18 09:16:30;;;;;;;38.08;11.57;;;;;;;7.85;100.00;103527.91;5069819;28;20071;-72
2022/01/18 09:18:56;;;;;;;40.70;12.35;;;;;;;7.91;100.00;103526.66;5069990;28;20090;-73
2022/01/18 09:21:26;;;;;;;42.80;12.20;;;;;;;7.97;100.00;103519.91;5070273;28;20114;-72
2022/01/18 09:23:53;;;;;;;42.85;12.57;;;;;;;8.05;100.00;103530.19;5070450;28;20505;-72
2022/01/18 09:26:20;;;;;;;39.90;13.27;;;;;;;8.11;100.00;103530.88;5064550;28;20489;-73
2022/01/18 09:28:47;;;;;;;47.35;13.15;;;;;;;8.17;100.00;103530.44;5070388;28;20143;-73
2022/01/18 09:31:14;;;;;;;50.70;13.82;;;;;;;8.26;100.00;103534.09;5069749;28;20147;-72
2022/01/18 09:33:40;;;;;;;51.63;14.10;;;;;;;8.36;100.00;103539.34;5068709;28;20052;-75
2022/01/18 09:36:07;;;;;;;34.20;11.65;;;;;;;8.38;100.00;103533.53;5073324;28;20130;-73
2022/01/18 09:38:34;;;;;;;40.75;11.70;;;;;;;8.41;100.00;103533.72;5070336;28;20058;-73
2022/01/18 09:41:08;;;;;;;44.30;12.55;;;;;;;8.51;100.00;103535.41;5068136;28;20080;-75
2022/01/18 09:43:37;;;;;;;40.80;11.80;;;;;;;8.49;100.00;103541.22;5069776;28;20474;-73
2022/01/18 09:46:05;;;;;;;38.22;11.93;;;;;;;8.49;100.00;103538.47;5069076;28;20798;-71
2022/01/18 09:48:33;;;;;;;35.30;11.27;;;;;;;8.54;100.00;103545.81;5070751;28;20131;-73
2022/01/18 09:51:00;;;;;;;43.60;10.43;;;;;;;8.50;100.00;103553.88;5057570;28;20408;-72
2022/01/18 09:53:27;;;;;;;35.35;10.68;;;;;;;8.49;100.00;103552.28;5063938;28;20550;-75
2022/01/18 09:55:54;;;;;;;33.15;10.95;;;;;;;8.52;100.00;103551.66;5065963;28;21207;-74
2022/01/18 09:58:21;;;;;;;43.75;11.20;;;;;;;8.58;100.00;103547.63;5061110;28;20077;-76
2022/01/18 10:00:50;;;;;;;39.97;11.57;;;;;;;8.61;100.00;103552.50;5063908;28;20412;-76
2022/01/18 10:03:38;;;;;;;31.83;10.80;;;;;;;8.48;100.00;103558.94;5063779;28;20080;-72
2022/01/18 10:06:06;;;;;;;37.80;11.38;;;;;;;8.50;100.00;103553.88;5063625;28;20474;-73
2022/01/18 10:08:41;;;;;;;37.45;10.40;;;;;;;8.53;100.00;103556.03;5067958;28;20048;-74
2022/01/18 10:11:17;;;;;;;38.00;10.70;;;;;;;8.49;100.00;103543.16;5066471;28;20149;-74
2022/01/18 10:13:46;;;;;;;38.47;11.30;;;;;;;8.59;100.00;103543.72;5056179;28;20052;-73
2022/01/18 10:16:21;;;;;;;32.50;10.40;;;;;;;8.72;100.00;103540.06;5068649;28;20142;-73
2022/01/18 10:19:02;;;;;;;44.78;12.57;;;;;;;8.82;100.00;103541.72;5077870;28;20433;-75
2022/01/18 10:21:40;;;;;;;39.55;11.77;;;;;;;8.94;100.00;103551.03;5062784;28;20060;-76
2022/01/18 10:24:10;;;;;;;34.63;9.75;;;;;;;9.06;100.00;103544.94;5073544;28;20477;-76
2022/01/18 10:26:41;;;;;;;36.78;9.85;;;;;;;9.17;100.00;103544.31;5069389;28;20056;-73
2022/01/18 10:29:11;;;;;;;35.55;9.95;;;;;;;9.27;100.00;103544.03;5065084;28;20111;-77
2022/01/18 10:31:56;;;;;;;41.17;11.60;;;;;;;9.30;100.00;103543.41;5078066;28;20082;-71
2022/01/18 10:37:14;;;;;;;34.05;11.45;;;;;;;9.32;100.00;103545.84;5068342;28;20140;-73
2022/01/18 10:39:51;;;;;;;35.88;10.07;;;;;;;9.16;100.00;103537.19;5061894;28;20151;-74
2022/01/18 10:42:25;;;;;;;31.65;10.27;;;;;;;9.09;100.00;103525.78;5065234;28;20109;-73
2022/01/18 10:45:12;;;;;;;27.60;10.55;;;;;;;8.90;100.00;103530.72;5066130;28;20154;-75
2022/01/18 10:47:48;;;;;;;35.45;12.23;;;;;;;8.72;100.00;103529.03;5066500;28;20408;-75
2022/01/18 10:50:17;;;;;;;37.65;11.95;;;;;;;8.80;100.00;103528.25;5064622;28;20136;-72
2022/01/18 10:52:43;;;;;;;34.17;12.57;;;;;;;8.67;100.00;103522.84;5065781;28;20045;-74
2022/01/18 10:55:19;;;;;;;41.22;13.02;;;;;;;8.68;100.00;103513.41;5082898;28;20083;-73
2022/01/18 10:57:47;;;;;;;38.55;13.00;;;;;;;8.76;100.00;103520.91;5081930;28;20537;-72
2022/01/18 11:00:18;;;;;;;46.05;13.77;;;;;;;8.73;100.00;103522.38;5070840;28;20060;-72
2022/01/18 11:02:50;;;;;;;45.45;15.90;;;;;;;8.84;100.00;103525.69;5065517;28;20454;-72
2022/01/18 11:05:29;;;;;;;40.75;15.00;;;;;;;8.91;100.00;103524.06;5080266;28;20048;-74
2022/01/18 11:08:02;;;;;;;46.72;16.45;;;;;;;9.01;100.00;103515.50;5064058;28;20045;-72
2022/01/18 11:10:43;;;;;;;47.03;16.67;;;;;;;9.07;100.00;103517.00;5052625;28;20497;-73
2022/01/18 11:13:34;;;;;;;43.33;14.98;;;;;;;9.11;100.00;103515.22;5066669;28;20044;-72
2022/01/18 11:16:12;;;;;;;43.90;15.88;;;;;;;9.14;100.00;103505.47;5066619;28;20394;-73
2022/01/18 11:18:40;;;;;;;42.83;14.35;;;;;;;9.23;100.00;103515.41;5075016;28;20538;-74
2022/01/18 11:21:07;;;;;;;40.78;14.20;;;;;;;9.35;100.00;103504.53;5062686;28;20616;-73
2022/01/18 11:23:35;;;;;;;35.28;14.23;;;;;;;9.42;100.00;103502.13;5058675;28;20052;-73
2022/01/18 11:26:02;;;;;;;33.30;12.65;;;;;;;9.43;100.00;103492.72;5065681;28;20524;-73
2022/01/18 11:28:31;;;;;;;40.20;14.90;;;;;;;9.50;100.00;103500.50;5057506;28;20044;-72
2022/01/18 11:30:58;;;;;;;51.42;18.02;;;;;;;9.58;100.00;103500.53;5061332;28;20424;-73
2022/01/18 11:33:27;;;;;;;41.05;14.77;;;;;;;9.56;100.00;103494.50;5058622;28;20059;-74
2022/01/18 11:36:06;;;;;;;48.00;15.15;;;;;;;9.65;100.00;103495.31;5068679;28;20139;-74
2022/01/18 11:38:50;;;;;;;47.63;15.43;;;;;;;10.01;100.00;103497.75;5064282;28;20056;-75
2022/01/18 11:41:35;;;;;;;41.25;12.95;;;;;;;11.32;100.00;103489.19;5070130;28;20065;-72
2022/01/18 11:44:14;;;;;;;43.60;14.73;;;;;;;12.09;100.00;103478.28;5066230;28;20127;-73
2022/01/18 11:46:52;;;;;;;32.50;13.60;;;;;;;13.61;100.00;103475.84;5065306;28;20048;-75
2022/01/18 11:49:21;;;;;;;37.47;13.93;;;;;;;13.47;100.00;103475.44;5072655;28;20765;-73
2022/01/18 11:51:55;;;;;;;31.35;12.60;;;;;;;13.89;100.00;103474.72;5067463;28;20101;-74
2022/01/18 11:54:37;;;;;;;40.38;14.52;;;;;;;13.51;100.00;103481.91;5065173;28;20434;-73
2022/01/18 11:57:22;;;;;;;37.38;13.65;;;;;;;12.64;100.00;103477.84;5066661;28;20054;-73
2022/01/18 12:00:10;;;;;;;41.05;14.63;;;;;;;12.26;100.00;103475.31;5067640;28;20098;-72
2022/01/18 12:02:42;;;;;;;34.30;12.77;;;;;;;11.90;100.00;103466.06;5064507;28;20113;-73
2022/01/18 12:05:21;;;;;;;33.42;13.63;;;;;;;11.54;100.00;103477.75;5068881;28;20146;-73
2022/01/18 12:07:52;;;;;;;35.17;13.48;;;;;;;11.24;100.00;103469.81;5063883;28;20045;-75
2022/01/18 12:10:20;;;;;;;34.78;12.65;;;;;;;10.99;100.00;103477.13;5066649;28;20423;-72
2022/01/18 12:12:48;;;;;;;39.85;13.63;;;;;;;10.97;100.00;103481.41;5065440;28;20068;-71
2022/01/18 12:15:18;;;;;;;34.78;12.75;;;;;;;11.57;100.00;103476.25;5063273;28;20060;-73
2022/01/18 12:17:56;;;;;;;32.47;10.65;;;;;;;11.86;100.00;103476.22;5073044;28;20573;-74
2022/01/18 12:20:32;;;;;;;34.13;10.38;;;;;;;12.38;100.00;103464.28;5064229;28;20117;-74
2022/01/18 12:23:03;;;;;;;37.97;10.00;;;;;;;12.10;100.00;103465.22;5064608;28;20037;-74
2022/01/18 12:25:34;;;;;;;30.02;8.73;;;;;;;11.88;100.00;103462.84;5061014;28;20049;-73
2022/01/18 12:37:17;;;;;;;35.03;8.80;;;;;;;11.02;100.00;103459.84;5055805;28;21625;-72
2022/01/18 12:39:49;;;;;;;26.33;8.20;;;;;;;10.91;100.00;103460.56;5056126;28;20499;-74